Time;durP1;ratioP1;P1;durP2;ratioP2;P2;SDS_P1;SDS_P2;PMS_P1;PMS_P2;Temp;Humidity;BMP_temperature;BMP_pressure;BME280_temperature;BME280_humidity;BME280_pressure;Samples;Min_cycle;Max_cycle;Signal;HPM_P1;HPM_P2
2022/11/25 00:05:28;;;;;;;11.33;4.37;;;9.20;99.90;;;;;;2617915;54;20130;-82
2022/11/25 00:11:20;;;;;;;7.53;4.80;;;9.30;99.90;;;;;;2617129;54;20162;-83
2022/11/25 00:17:07;;;;;;;11.10;4.03;;;9.30;99.90;;;;;;2617310;54;20391;-82
2022/11/25 00:20:19;;;;;;;8.33;3.67;;;9.30;99.90;;;;;;2617920;46;20957;-81
2022/11/25 00:22:45;;;;;;;9.93;4.00;;;9.30;99.90;;;;;;2617407;54;20211;-83
2022/11/25 00:28:32;;;;;;;5.87;3.70;;;9.30;99.90;;;;;;2617362;54;20138;-82
2022/11/25 00:34:19;;;;;;;7.13;4.17;;;9.20;99.90;;;;;;2617193;54;20257;-81
2022/11/25 00:40:07;;;;;;;10.77;4.60;;;9.20;99.90;;;;;;2616525;54;20258;-82
2022/11/25 00:45:54;;;;;;;10.13;5.00;;;9.20;99.90;;;;;;2615289;54;20363;-82
2022/11/25 00:51:42;;;;;;;7.60;4.67;;;9.10;99.90;;;;;;2615819;54;20138;-81
2022/11/25 00:57:29;;;;;;;12.17;4.30;;;9.00;99.90;;;;;;2615830;54;20130;-82
2022/11/25 01:03:16;;;;;;;22.00;4.23;;;9.00;99.90;;;;;;2615965;54;20390;-82
2022/11/25 01:09:09;;;;;;;7.53;3.80;;;9.00;99.90;;;;;;2616589;54;20130;-83
2022/11/25 01:14:56;;;;;;;9.50;3.70;;;8.90;99.90;;;;;;2617274;54;20398;-82
2022/11/25 01:20:43;;;;;;;5.80;4.00;;;9.00;99.90;;;;;;2617310;46;20691;-82
2022/11/25 01:26:31;;;;;;;10.80;4.00;;;8.90;99.90;;;;;;2616295;54;20190;-83
2022/11/25 01:29:52;;;;;;;12.23;4.67;;;9.00;99.90;;;;;;2616993;54;20475;-82
2022/11/25 01:35:39;;;;;;;9.87;3.90;;;9.00;99.90;;;;;;2616760;54;20383;-82
2022/11/25 01:41:30;;;;;;;6.73;3.70;;;9.00;99.90;;;;;;2618344;39;20562;-82
2022/11/25 01:47:23;;;;;;;11.90;3.53;;;9.10;99.90;;;;;;2617881;54;20383;-82
2022/11/25 01:53:15;;;;;;;9.20;3.83;;;9.20;99.90;;;;;;2618973;47;20829;-79
2022/11/25 01:59:02;;;;;;;8.93;3.67;;;9.20;99.90;;;;;;2618587;54;20378;-80
2022/11/25 02:04:51;;;;;;;7.83;4.30;;;9.10;99.90;;;;;;2620074;54;20227;-79
2022/11/25 02:10:39;;;;;;;9.87;4.60;;;9.10;99.90;;;;;;2620554;54;20364;-79
2022/11/25 02:16:26;;;;;;;10.30;3.83;;;9.00;99.90;;;;;;2619670;54;20161;-80
2022/11/25 02:25:43;;;;;;;10.90;4.90;;;9.00;99.90;;;;;;2619474;54;20399;-80
2022/11/25 02:28:21;;;;;;;8.10;3.53;;;9.00;99.90;;;;;;2619032;54;20479;-80
2022/11/25 02:34:09;;;;;;;11.40;4.00;;;9.10;99.90;;;;;;2619871;54;20391;-81
2022/11/25 02:39:57;;;;;;;14.70;4.50;;;9.30;99.90;;;;;;2619691;54;20419;-80
2022/11/25 02:46:09;;;;;;;9.30;4.53;;;9.30;99.90;;;;;;2620283;46;20138;-78
2022/11/25 02:52:00;;;;;;;9.20;2.90;;;9.70;99.90;;;;;;2620147;54;20937;-79
2022/11/25 02:57:47;;;;;;;8.57;3.70;;;9.80;99.90;;;;;;2618115;54;20529;-80
2022/11/25 03:03:35;;;;;;;8.80;3.90;;;9.80;99.90;;;;;;2618986;31;20626;-80
2022/11/25 03:09:22;;;;;;;5.07;3.50;;;10.00;99.90;;;;;;2617553;54;20411;-78
2022/11/25 03:15:10;;;;;;;16.83;5.10;;;10.10;99.90;;;;;;2616236;54;20675;-78
2022/11/25 03:20:57;;;;;;;7.80;5.20;;;10.00;99.90;;;;;;2616588;54;20375;-79
2022/11/25 03:26:44;;;;;;;9.30;4.67;;;9.80;99.90;;;;;;2617099;54;20178;-80
2022/11/25 03:35:56;;;;;;;7.93;4.30;;;9.80;99.90;;;;;;2617669;54;20928;-80
2022/11/25 03:41:44;;;;;;;11.07;4.70;;;9.80;99.90;;;;;;2617380;54;20378;-78
2022/11/25 03:47:33;;;;;;;14.17;5.73;;;9.80;99.90;;;;;;2618077;54;20469;-77
2022/11/25 03:53:21;;;;;;;12.63;4.70;;;9.70;99.90;;;;;;2618172;54;20371;-77
2022/11/25 03:59:08;;;;;;;11.10;4.27;;;9.60;99.90;;;;;;2618083;54;20139;-78
2022/11/25 04:04:56;;;;;;;6.63;3.97;;;9.60;99.90;;;;;;2615835;54;20127;-83
2022/11/25 04:10:44;;;;;;;8.87;3.90;;;9.60;99.90;;;;;;2615287;54;20379;-80
2022/11/25 04:16:31;;;;;;;8.70;4.23;;;9.70;99.90;;;;;;2617707;54;21432;-79
2022/11/25 04:22:18;;;;;;;8.30;3.40;;;9.80;99.90;;;;;;2617348;54;20260;-79
2022/11/25 04:28:05;;;;;;;7.03;4.13;;;9.70;99.90;;;;;;2618507;54;20601;-81
2022/11/25 04:38:11;;;;;;;7.53;3.30;;;9.60;99.90;;;;;;2616001;54;20423;-80
2022/11/25 04:43:59;;;;;;;7.90;3.70;;;9.70;99.90;;;;;;2616400;46;20440;-80
2022/11/25 04:49:46;;;;;;;10.20;3.60;;;9.60;99.90;;;;;;2616995;54;20432;-81
2022/11/25 05:05:24;;;;;;;10.77;3.43;;;9.70;99.90;;;;;;2616460;54;20964;-79
2022/11/25 05:11:11;;;;;;;9.50;3.40;;;9.60;99.90;;;;;;2616222;54;20230;-78
2022/11/25 05:16:59;;;;;;;13.00;4.00;;;9.50;99.90;;;;;;2616436;39;20517;-81
2022/11/25 05:22:46;;;;;;;9.80;3.43;;;9.50;99.90;;;;;;2614977;54;20134;-80
2022/11/25 05:28:33;;;;;;;10.07;4.47;;;9.50;99.90;;;;;;2615744;54;20123;-79
2022/11/25 05:38:12;;;;;;;14.00;4.97;;;9.30;99.90;;;;;;2613721;54;20433;-78
2022/11/25 05:43:59;;;;;;;9.90;3.77;;;9.10;99.90;;;;;;2614524;54;20987;-79
2022/11/25 05:49:46;;;;;;;11.23;3.63;;;9.00;99.90;;;;;;2615305;46;20166;-81
2022/11/25 05:58:57;;;;;;;8.97;3.90;;;8.90;99.90;;;;;;2615531;54;20435;-80
2022/11/25 06:04:44;;;;;;;13.07;5.80;;;8.80;99.90;;;;;;2612168;54;20387;-80
2022/11/25 06:10:32;;;;;;;14.63;6.40;;;8.80;99.90;;;;;;2613940;54;20645;-80
2022/11/25 06:16:21;;;;;;;11.87;5.20;;;8.80;99.90;;;;;;2612890;54;20408;-81
2022/11/25 06:22:09;;;;;;;10.00;4.83;;;8.70;99.90;;;;;;2616744;54;20495;-81
2022/11/25 06:27:58;;;;;;;10.33;5.20;;;8.70;99.90;;;;;;2616227;54;20151;-81
2022/11/25 06:33:50;;;;;;;12.97;4.77;;;8.70;99.90;;;;;;2613301;54;20367;-79
2022/11/25 06:39:38;;;;;;;13.27;4.47;;;8.80;99.90;;;;;;2614502;54;20610;-80
2022/11/25 06:45:26;;;;;;;14.43;6.40;;;8.70;99.90;;;;;;2614903;39;20478;-80
2022/11/25 06:51:15;;;;;;;18.47;6.03;;;8.80;99.90;;;;;;2614075;54;20130;-79
2022/11/25 06:57:03;;;;;;;17.20;5.97;;;8.80;99.90;;;;;;2614862;54;20399;-80
2022/11/25 07:02:50;;;;;;;12.93;5.13;;;8.80;99.90;;;;;;2614156;54;20192;-80
2022/11/25 07:08:42;;;;;;;16.10;5.60;;;8.80;99.90;;;;;;2612351;54;20134;-80
2022/11/25 07:14:29;;;;;;;12.80;5.17;;;8.80;99.90;;;;;;2612882;54;20457;-80
2022/11/25 07:20:16;;;;;;;9.83;5.57;;;8.70;99.90;;;;;;2610331;54;20133;-80
2022/11/25 07:26:08;;;;;;;13.90;4.90;;;8.70;99.90;;;;;;2611229;54;20167;-79
2022/11/25 07:31:56;;;;;;;10.67;5.93;;;8.80;99.90;;;;;;2611142;54;20399;-78
2022/11/25 07:34:22;;;;;;;14.27;6.27;;;8.80;99.90;;;;;;2610216;39;20845;-79
2022/11/25 07:36:49;;;;;;;12.10;5.93;;;8.80;99.90;;;;;;2610955;54;20450;-79
2022/11/25 07:42:36;;;;;;;10.50;5.63;;;8.90;99.90;;;;;;2610168;54;22028;-79
2022/11/25 07:48:24;;;;;;;14.23;6.40;;;8.80;99.90;;;;;;2610682;54;20154;-79
2022/11/25 07:57:32;;;;;;;13.50;5.80;;;8.80;99.90;;;;;;2611611;54;20399;-80
2022/11/25 08:03:19;;;;;;;13.90;5.10;;;8.70;99.90;;;;;;2609950;54;20243;-78
2022/11/25 08:09:09;;;;;;;19.20;7.17;;;8.80;99.90;;;;;;2611463;54;20198;-79
2022/11/25 08:14:57;;;;;;;16.20;7.30;;;8.80;99.90;;;;;;2610646;54;21107;-79
2022/11/25 08:20:45;;;;;;;21.60;7.00;;;8.90;99.90;;;;;;2613501;54;20204;-79
2022/11/25 08:26:36;;;;;;;16.47;5.63;;;9.20;99.90;;;;;;2610451;54;20223;-81
2022/11/25 08:32:23;;;;;;;11.23;5.20;;;9.70;99.90;;;;;;2611284;54;20471;-79
2022/11/25 08:38:10;;;;;;;14.30;5.93;;;9.80;99.90;;;;;;2611558;54;20222;-80
2022/11/25 08:40:37;;;;;;;8.00;5.57;;;9.90;99.90;;;;;;2611625;46;20958;-80
2022/11/25 08:46:27;;;;;;;9.33;4.90;;;9.70;99.90;;;;;;2613328;54;20505;-77
2022/11/25 08:52:15;;;;;;;6.67;4.40;;;9.50;99.90;;;;;;2613414;54;20389;-79
2022/11/25 08:58:02;;;;;;;8.60;4.17;;;10.10;99.90;;;;;;2610807;54;20379;-75
2022/11/25 09:03:53;;;;;;;10.90;5.77;;;10.80;99.90;;;;;;2613447;39;20758;-76
2022/11/25 09:09:43;;;;;;;12.37;4.63;;;11.20;99.90;;;;;;2612888;31;20874;-76
2022/11/25 09:15:31;;;;;;;7.50;5.00;;;11.30;99.90;;;;;;2609761;39;20530;-79
2022/11/25 09:21:18;;;;;;;10.43;4.40;;;11.30;99.90;;;;;;2612013;46;20423;-78
2022/11/25 09:27:06;;;;;;;12.40;4.53;;;11.00;99.90;;;;;;2611487;54;20410;-79
2022/11/25 09:32:55;;;;;;;5.37;4.07;;;13.60;99.90;;;;;;2611113;39;20587;-80
2022/11/25 09:36:11;;;;;;;7.07;4.60;;;13.20;99.90;;;;;;2612494;54;20423;-81
2022/11/25 09:48:19;;;;;;;5.60;3.50;;;14.90;99.90;;;;;;2615142;54;20520;-82
2022/11/25 10:00:46;;;;;;;8.00;3.07;;;13.70;99.90;;;;;;2612521;39;21169;-80
2022/11/25 10:09:55;;;;;;;10.30;4.33;;;13.20;99.90;;;;;;2612323;54;20412;-79
2022/11/25 10:15:47;;;;;;;7.57;4.27;;;14.10;99.90;;;;;;2616327;54;20388;-81
2022/11/25 10:21:34;;;;;;;8.10;3.50;;;11.40;99.90;;;;;;2616058;54;20434;-82
2022/11/25 10:31:27;;;;;;;6.83;4.27;;;11.00;99.90;;;;;;2616596;54;20438;-82
2022/11/25 10:48:14;;;;;;;8.30;4.70;;;12.90;99.90;;;;;;2616443;54;20439;-81
2022/11/25 11:00:37;;;;;;;9.70;4.93;;;15.00;99.90;;;;;;2617182;54;20927;-81
2022/11/25 11:06:35;;;;;;;12.83;4.80;;;15.60;91.00;;;;;;2616532;54;20383;-84
2022/11/25 11:12:28;;;;;;;5.53;4.83;;;14.80;99.90;;;;;;2616158;39;20808;-80
2022/11/25 11:18:22;;;;;;;5.90;4.50;;;14.60;99.90;;;;;;2616169;54;20408;-81
2022/11/25 11:24:27;;;;;;;12.10;5.53;;;14.80;99.90;;;;;;2616783;39;20764;-80
2022/11/25 11:30:16;;;;;;;7.83;4.67;;;15.50;98.40;;;;;;2617301;39;20772;-82
2022/11/25 11:59:14;;;;;;;7.83;5.37;;;16.70;70.90;;;;;;2615859;54;20367;-82
2022/11/25 12:05:23;;;;;;;8.90;5.00;;;16.80;78.50;;;;;;2616790;54;20395;-83
2022/11/25 12:11:16;;;;;;;8.97;5.40;;;13.80;99.90;;;;;;2617246;54;20383;-83
2022/11/25 12:23:25;;;;;;;6.77;4.87;;;12.10;99.90;;;;;;2616347;54;20375;-83
2022/11/25 12:49:20;;;;;;;11.07;4.80;;;14.70;99.90;;;;;;2616011;54;20465;-83
2022/11/25 12:55:18;;;;;;;9.37;5.50;;;12.90;99.90;;;;;;2616294;54;20420;-84
2022/11/25 13:21:11;;;;;;;12.37;5.13;;;12.00;99.90;;;;;;2615883;54;20424;-84
2022/11/25 13:27:00;;;;;;;8.43;4.63;;;11.80;99.90;;;;;;2616571;54;20401;-83
2022/11/25 13:32:47;;;;;;;5.37;4.83;;;12.00;99.90;;;;;;2616080;54;20392;-85
2022/11/25 13:49:05;;;;;;;8.50;5.07;;;11.90;99.90;;;;;;2615372;54;20421;-81
2022/11/25 13:54:54;;;;;;;9.30;5.73;;;11.90;99.90;;;;;;2617073;54;20406;-84
2022/11/25 14:00:48;;;;;;;9.63;5.10;;;11.80;99.90;;;;;;2617548;54;20412;-82
2022/11/25 14:06:41;;;;;;;9.80;4.80;;;11.90;99.90;;;;;;2618158;54;20960;-84
2022/11/25 14:12:38;;;;;;;7.10;5.00;;;11.90;99.90;;;;;;2617663;54;20447;-85
2022/11/25 14:18:48;;;;;;;7.33;5.60;;;11.80;99.90;;;;;;2617597;54;20415;-83
2022/11/25 14:24:50;;;;;;;7.50;5.27;;;11.80;99.90;;;;;;2615559;54;21082;-84
2022/11/25 14:34:39;;;;;;;8.90;5.10;;;11.80;99.90;;;;;;2616155;54;20395;-83
2022/11/25 14:46:56;;;;;;;8.70;5.80;;;11.50;99.90;;;;;;2616039;54;20442;-82
2022/11/25 14:50:18;;;;;;;9.20;4.70;;;11.50;99.90;;;;;;2615533;47;20404;-81
2022/11/25 14:56:06;;;;;;;9.90;5.00;;;11.40;99.90;;;;;;2617326;54;20424;-83
2022/11/25 15:01:53;;;;;;;8.70;4.87;;;11.30;99.90;;;;;;2616318;46;20399;-82
2022/11/25 15:07:42;;;;;;;12.90;4.50;;;11.30;99.90;;;;;;2615216;54;20643;-83
2022/11/25 15:13:37;;;;;;;8.33;5.30;;;11.30;99.90;;;;;;2615477;54;20407;-84
2022/11/25 15:19:30;;;;;;;21.33;5.87;;;11.30;99.90;;;;;;2616177;54;20394;-85
2022/11/25 15:25:19;;;;;;;17.90;6.27;;;11.30;99.90;;;;;;2616209;54;20572;-83
2022/11/25 15:37:53;;;;;;;11.43;5.57;;;10.90;99.90;;;;;;2619807;54;20448;-84
2022/11/25 15:43:46;;;;;;;13.47;8.13;;;11.00;99.90;;;;;;2617251;54;20142;-84
2022/11/25 15:49:34;;;;;;;11.53;6.60;;;11.10;99.90;;;;;;2618048;54;20442;-83
2022/11/25 15:52:56;;;;;;;12.63;5.23;;;11.00;99.90;;;;;;2616349;47;20423;-83
2022/11/25 15:58:44;;;;;;;15.80;9.40;;;11.00;99.90;;;;;;2615711;54;20399;-83
2022/11/25 16:04:31;;;;;;;12.50;9.37;;;10.90;99.90;;;;;;2616828;39;20437;-84
2022/11/25 16:10:23;;;;;;;8.50;6.23;;;10.80;99.90;;;;;;2618602;39;20514;-84
2022/11/25 16:20:45;;;;;;;8.97;5.10;;;10.80;99.90;;;;;;2616649;54;20432;-83
2022/11/25 16:32:59;;;;;;;12.37;7.03;;;10.90;99.90;;;;;;2616077;54;20414;-84
2022/11/25 16:38:51;;;;;;;15.23;7.97;;;10.80;99.90;;;;;;2616830;54;20129;-82
2022/11/25 16:44:38;;;;;;;8.30;6.87;;;10.80;99.90;;;;;;2616712;54;20394;-85
2022/11/25 16:50:26;;;;;;;15.80;8.40;;;10.80;99.90;;;;;;2615713;54;20296;-82
2022/11/25 16:56:18;;;;;;;7.83;5.23;;;10.80;99.90;;;;;;2616314;54;20165;-85
2022/11/25 17:08:54;;;;;;;7.87;5.33;;;10.90;99.90;;;;;;2615781;54;20383;-82
2022/11/25 17:14:44;;;;;;;12.60;5.67;;;10.80;99.90;;;;;;2615538;54;20703;-84
2022/11/25 17:20:31;;;;;;;12.63;5.00;;;10.90;99.90;;;;;;2616886;39;20873;-84
2022/11/25 17:26:25;;;;;;;12.60;6.00;;;10.80;99.90;;;;;;2615546;46;20274;-85
2022/11/25 17:32:13;;;;;;;9.53;5.90;;;10.80;99.90;;;;;;2616054;54;20407;-84
2022/11/25 17:38:08;;;;;;;7.50;4.50;;;10.70;99.90;;;;;;2616208;54;20399;-85
2022/11/25 17:43:55;;;;;;;13.77;5.27;;;10.80;99.90;;;;;;2619570;54;20387;-84
2022/11/25 17:53:46;;;;;;;16.30;5.40;;;10.80;99.90;;;;;;2623921;54;20395;-84
2022/11/25 17:59:34;;;;;;;8.70;6.20;;;10.80;99.90;;;;;;2625143;54;20948;-83
2022/11/25 18:05:27;;;;;;;14.13;5.47;;;10.80;99.90;;;;;;2623108;54;20131;-82
2022/11/25 18:11:17;;;;;;;9.70;5.17;;;10.70;99.90;;;;;;2622385;54;20391;-83
2022/11/25 18:17:06;;;;;;;11.00;5.67;;;10.70;99.90;;;;;;2620869;54;20447;-85
2022/11/25 18:22:54;;;;;;;13.53;5.83;;;10.70;99.90;;;;;;2624237;54;20411;-85
2022/11/25 18:28:42;;;;;;;10.87;5.47;;;10.70;99.90;;;;;;2623978;54;20146;-83
2022/11/25 18:34:33;;;;;;;13.87;5.50;;;10.50;99.90;;;;;;2626998;54;20122;-83
2022/11/25 18:40:23;;;;;;;11.77;6.03;;;10.40;99.90;;;;;;2623860;54;20449;-84
2022/11/25 18:46:12;;;;;;;9.50;7.00;;;10.40;99.90;;;;;;2624657;54;20388;-84
2022/11/25 18:49:14;;;;;;;10.80;7.53;;;10.40;99.90;;;;;;2623391;47;20408;-83
2022/11/25 18:51:41;;;;;;;10.43;6.20;;;10.30;99.90;;;;;;2623742;54;20415;-83
2022/11/25 18:57:29;;;;;;;14.40;6.40;;;10.30;99.90;;;;;;2617972;39;20831;-85
2022/11/25 19:03:23;;;;;;;11.30;5.93;;;10.20;99.90;;;;;;2617460;54;20203;-83
2022/11/25 19:09:11;;;;;;;14.10;7.20;;;10.30;99.90;;;;;;2618216;54;20403;-84
2022/11/25 19:14:59;;;;;;;14.33;7.37;;;10.30;99.90;;;;;;2617465;54;20376;-84
2022/11/25 19:20:47;;;;;;;8.37;6.47;;;10.30;99.90;;;;;;2617335;39;20550;-83
2022/11/25 19:26:41;;;;;;;13.90;7.03;;;10.20;99.90;;;;;;2620190;54;20122;-83
2022/11/25 19:32:32;;;;;;;14.03;7.67;;;10.10;99.90;;;;;;2617677;54;20403;-84
2022/11/25 19:38:24;;;;;;;16.20;11.50;;;10.10;99.90;;;;;;2618230;39;20831;-83
2022/11/25 19:44:11;;;;;;;10.20;6.83;;;10.00;99.90;;;;;;2618753;54;20420;-82
2022/11/25 19:53:46;;;;;;;16.10;9.53;;;10.10;99.90;;;;;;2618027;54;20415;-84
2022/11/25 19:59:34;;;;;;;14.70;7.60;;;10.00;99.90;;;;;;2617940;31;20926;-85
2022/11/25 20:11:53;;;;;;;11.70;6.83;;;9.90;99.90;;;;;;2618884;31;20872;-84
2022/11/25 20:30:26;;;;;;;11.20;6.93;;;9.60;99.90;;;;;;2619295;54;20367;-84
2022/11/25 20:36:16;;;;;;;16.03;7.67;;;9.50;99.90;;;;;;2618997;39;21143;-84
2022/11/25 20:42:05;;;;;;;14.90;7.60;;;9.60;99.90;;;;;;2619508;54;20436;-84
2022/11/25 20:47:52;;;;;;;10.73;6.73;;;9.50;99.90;;;;;;2619777;31;20833;-85
2022/11/25 20:53:44;;;;;;;15.90;7.77;;;9.30;99.90;;;;;;2618077;54;20122;-85
2022/11/25 20:59:33;;;;;;;29.90;11.40;;;9.30;99.90;;;;;;2618311;46;20415;-83
2022/11/25 21:05:20;;;;;;;15.30;9.27;;;9.10;99.90;;;;;;2619902;54;20435;-82
2022/11/25 21:11:08;;;;;;;21.70;10.00;;;9.10;99.90;;;;;;2619225;54;20159;-84
2022/11/25 21:16:59;;;;;;;17.90;9.63;;;8.80;99.90;;;;;;2618979;54;20130;-83
2022/11/25 21:22:52;;;;;;;18.43;10.10;;;8.70;99.90;;;;;;2617457;54;20483;-85
2022/11/25 21:28:41;;;;;;;20.33;11.10;;;8.50;99.90;;;;;;2617776;54;20401;-81
2022/11/25 21:37:50;;;;;;;23.03;10.57;;;8.10;99.90;;;;;;2617362;54;20429;-84
2022/11/25 21:43:41;;;;;;;23.57;11.27;;;7.70;99.90;;;;;;2617530;54;20616;-84
2022/11/25 21:49:28;;;;;;;23.00;11.80;;;7.70;99.90;;;;;;2617410;54;20428;-83
2022/11/25 21:59:22;;;;;;;16.17;10.20;;;7.60;99.90;;;;;;2617826;54;20456;-83
2022/11/25 22:05:14;;;;;;;28.27;12.57;;;7.40;99.90;;;;;;2617923;54;20390;-82
2022/11/25 22:11:02;;;;;;;33.13;13.90;;;7.40;99.90;;;;;;2617746;54;20399;-83
2022/11/25 22:16:50;;;;;;;28.03;13.77;;;7.20;99.90;;;;;;2617491;54;20443;-82
2022/11/25 22:22:37;;;;;;;33.90;14.50;;;7.10;99.90;;;;;;2617629;54;20431;-84
2022/11/25 22:28:27;;;;;;;24.23;11.43;;;6.90;99.90;;;;;;2618267;54;20227;-84
2022/11/25 22:40:51;;;;;;;22.63;13.27;;;6.60;99.90;;;;;;2618781;54;20423;-84
2022/11/25 22:46:39;;;;;;;27.67;12.67;;;6.60;99.90;;;;;;2619479;54;20363;-84
2022/11/25 22:52:30;;;;;;;33.67;13.17;;;6.30;99.90;;;;;;2618183;54;20134;-83
2022/11/25 22:58:37;;;;;;;27.80;13.80;;;6.30;99.90;;;;;;2617513;54;20387;-83
2022/11/25 23:04:25;;;;;;;36.60;15.20;;;6.40;99.90;;;;;;2617020;54;20140;-84
2022/11/25 23:10:21;;;;;;;33.33;14.87;;;6.40;99.90;;;;;;2617973;39;20210;-84
2022/11/25 23:16:09;;;;;;;23.67;13.53;;;6.40;99.90;;;;;;2617199;54;20371;-83
2022/11/25 23:21:57;;;;;;;32.80;14.30;;;6.20;99.90;;;;;;2617901;54;20398;-84
2022/11/25 23:27:44;;;;;;;29.70;14.43;;;6.10;99.90;;;;;;2617776;54;20126;-83
2022/11/25 23:33:37;;;;;;;29.00;14.83;;;6.20;99.90;;;;;;2618328;54;20390;-84
2022/11/25 23:39:26;;;;;;;29.37;14.67;;;6.20;99.90;;;;;;2618634;54;20416;-84
2022/11/25 23:45:16;;;;;;;33.87;16.03;;;6.30;99.90;;;;;;2616821;54;20945;-81
2022/11/25 23:51:04;;;;;;;35.83;16.03;;;6.30;99.90;;;;;;2616693;54;20424;-83
